Terminal Aerodrome Forecast
Issued by NWS

Home | Current Version | Previous Version | Text Only | Print | Product List | Glossary On
Versions: 1 2 3 4 5 6 7 8 9 10 11 12 13 14 15 16 17 18 19 20 21 22 23 24 25 26
705
FTUS45 KREV 191122
TAFCXP
TAF
KCXP 191122Z 1912/2012 00000KT P6SM SKC
     FM191900 21011G18KT P6SM BKN200 WS020/24040KT
     FM192300 23015G25KT P6SM SCT090 BKN180 WS020/25045KT
     FM200700 24019G32KT P6SM VCSH SCT060 OVC140=

USA.gov is the U.S. government's official web portal to all federal, state and local government web resources and services.